sensor_id;sensor_type;location;lat;lon;timestamp;P1;durP1;ratioP1;P2;durP2;ratioP2
52816;SDS011;38687;43.330;21.924;2023-04-24T00:00:06;8.65;;;6.35;;
52816;SDS011;38687;43.330;21.924;2023-04-24T00:02:34;8.43;;;6.20;;
52816;SDS011;38687;43.330;21.924;2023-04-24T00:05:03;8.10;;;5.93;;
52816;SDS011;38687;43.330;21.924;2023-04-24T00:07:32;11.50;;;7.97;;
52816;SDS011;38687;43.330;21.924;2023-04-24T00:09:58;10.75;;;7.55;;
52816;SDS011;38687;43.330;21.924;2023-04-24T00:12:24;12.15;;;7.93;;
52816;SDS011;38687;43.330;21.924;2023-04-24T00:14:49;9.75;;;7.93;;
52816;SDS011;38687;43.330;21.924;2023-04-24T00:17:15;9.27;;;8.20;;
52816;SDS011;38687;43.330;21.924;2023-04-24T00:19:40;11.13;;;8.10;;
52816;SDS011;38687;43.330;21.924;2023-04-24T00:22:06;11.45;;;8.32;;
52816;SDS011;38687;43.330;21.924;2023-04-24T00:24:31;10.85;;;8.20;;
52816;SDS011;38687;43.330;21.924;2023-04-24T00:26:57;11.50;;;7.93;;
52816;SDS011;38687;43.330;21.924;2023-04-24T00:29:22;9.95;;;8.10;;
52816;SDS011;38687;43.330;21.924;2023-04-24T00:31:48;10.10;;;8.30;;
52816;SDS011;38687;43.330;21.924;2023-04-24T00:34:13;10.23;;;7.70;;
52816;SDS011;38687;43.330;21.924;2023-04-24T00:36:39;14.15;;;8.85;;
52816;SDS011;38687;43.330;21.924;2023-04-24T00:39:05;9.45;;;8.30;;
52816;SDS011;38687;43.330;21.924;2023-04-24T00:41:33;10.38;;;8.73;;
52816;SDS011;38687;43.330;21.924;2023-04-24T00:43:59;10.07;;;8.43;;
52816;SDS011;38687;43.330;21.924;2023-04-24T00:46:24;8.63;;;7.20;;
52816;SDS011;38687;43.330;21.924;2023-04-24T00:48:50;9.63;;;7.38;;
52816;SDS011;38687;43.330;21.924;2023-04-24T00:51:15;11.88;;;7.80;;
52816;SDS011;38687;43.330;21.924;2023-04-24T00:53:41;8.07;;;7.28;;
52816;SDS011;38687;43.330;21.924;2023-04-24T00:56:06;8.40;;;6.68;;
52816;SDS011;38687;43.330;21.924;2023-04-24T00:58:31;8.80;;;7.20;;
52816;SDS011;38687;43.330;21.924;2023-04-24T01:00:57;11.63;;;7.32;;
52816;SDS011;38687;43.330;21.924;2023-04-24T01:03:28;14.48;;;8.18;;
52816;SDS011;38687;43.330;21.924;2023-04-24T01:05:56;12.05;;;7.88;;
52816;SDS011;38687;43.330;21.924;2023-04-24T01:08:25;10.75;;;7.03;;
52816;SDS011;38687;43.330;21.924;2023-04-24T01:10:52;12.23;;;7.93;;
52816;SDS011;38687;43.330;21.924;2023-04-24T01:13:18;13.00;;;7.82;;
52816;SDS011;38687;43.330;21.924;2023-04-24T01:15:44;13.60;;;7.03;;
52816;SDS011;38687;43.330;21.924;2023-04-24T01:18:10;11.32;;;6.70;;
52816;SDS011;38687;43.330;21.924;2023-04-24T01:20:36;7.65;;;6.15;;
52816;SDS011;38687;43.330;21.924;2023-04-24T01:23:05;6.88;;;6.18;;
52816;SDS011;38687;43.330;21.924;2023-04-24T01:25:33;7.00;;;5.80;;
52816;SDS011;38687;43.330;21.924;2023-04-24T01:27:59;5.97;;;5.35;;
52816;SDS011;38687;43.330;21.924;2023-04-24T01:30:25;7.78;;;5.68;;
52816;SDS011;38687;43.330;21.924;2023-04-24T01:32:51;6.22;;;5.50;;
52816;SDS011;38687;43.330;21.924;2023-04-24T01:35:17;6.78;;;5.55;;
52816;SDS011;38687;43.330;21.924;2023-04-24T01:37:43;8.30;;;6.00;;
52816;SDS011;38687;43.330;21.924;2023-04-24T01:40:09;7.15;;;5.53;;
52816;SDS011;38687;43.330;21.924;2023-04-24T01:42:34;6.82;;;5.15;;
52816;SDS011;38687;43.330;21.924;2023-04-24T01:45:00;6.93;;;5.85;;
52816;SDS011;38687;43.330;21.924;2023-04-24T01:47:28;7.32;;;5.78;;
52816;SDS011;38687;43.330;21.924;2023-04-24T01:49:55;8.07;;;5.90;;
52816;SDS011;38687;43.330;21.924;2023-04-24T01:52:20;9.35;;;6.15;;
52816;SDS011;38687;43.330;21.924;2023-04-24T01:54:46;9.13;;;6.25;;
52816;SDS011;38687;43.330;21.924;2023-04-24T01:57:11;8.55;;;6.10;;
52816;SDS011;38687;43.330;21.924;2023-04-24T01:59:37;11.02;;;6.68;;
52816;SDS011;38687;43.330;21.924;2023-04-24T02:02:02;8.48;;;7.07;;
52816;SDS011;38687;43.330;21.924;2023-04-24T02:04:28;9.35;;;6.63;;
52816;SDS011;38687;43.330;21.924;2023-04-24T02:06:54;13.23;;;7.78;;
52816;SDS011;38687;43.330;21.924;2023-04-24T02:09:19;10.45;;;7.32;;
52816;SDS011;38687;43.330;21.924;2023-04-24T02:11:45;11.65;;;8.10;;
52816;SDS011;38687;43.330;21.924;2023-04-24T02:14:10;14.98;;;7.60;;
52816;SDS011;38687;43.330;21.924;2023-04-24T02:16:36;12.65;;;7.82;;
52816;SDS011;38687;43.330;21.924;2023-04-24T02:19:02;8.25;;;6.38;;
52816;SDS011;38687;43.330;21.924;2023-04-24T02:21:28;8.38;;;6.07;;
52816;SDS011;38687;43.330;21.924;2023-04-24T02:23:53;10.82;;;6.72;;
52816;SDS011;38687;43.330;21.924;2023-04-24T02:26:19;8.48;;;6.05;;
52816;SDS011;38687;43.330;21.924;2023-04-24T02:28:45;9.18;;;5.90;;
52816;SDS011;38687;43.330;21.924;2023-04-24T02:31:10;9.77;;;5.97;;
52816;SDS011;38687;43.330;21.924;2023-04-24T02:33:37;7.68;;;5.60;;
52816;SDS011;38687;43.330;21.924;2023-04-24T02:36:02;7.38;;;5.53;;
52816;SDS011;38687;43.330;21.924;2023-04-24T02:38:28;6.03;;;5.43;;
52816;SDS011;38687;43.330;21.924;2023-04-24T02:40:54;16.42;;;6.93;;
52816;SDS011;38687;43.330;21.924;2023-04-24T02:43:20;25.02;;;10.00;;
52816;SDS011;38687;43.330;21.924;2023-04-24T02:45:45;37.38;;;12.23;;
52816;SDS011;38687;43.330;21.924;2023-04-24T02:48:11;27.75;;;10.45;;
52816;SDS011;38687;43.330;21.924;2023-04-24T02:50:36;10.77;;;6.13;;
52816;SDS011;38687;43.330;21.924;2023-04-24T02:53:01;10.95;;;5.35;;
52816;SDS011;38687;43.330;21.924;2023-04-24T02:55:27;6.38;;;5.22;;
52816;SDS011;38687;43.330;21.924;2023-04-24T02:57:53;7.00;;;5.15;;
52816;SDS011;38687;43.330;21.924;2023-04-24T03:00:18;9.18;;;5.97;;
52816;SDS011;38687;43.330;21.924;2023-04-24T03:02:44;6.55;;;5.95;;
52816;SDS011;38687;43.330;21.924;2023-04-24T03:05:10;8.23;;;5.10;;
52816;SDS011;38687;43.330;21.924;2023-04-24T03:07:37;10.02;;;6.22;;
52816;SDS011;38687;43.330;21.924;2023-04-24T03:10:03;8.45;;;6.65;;
52816;SDS011;38687;43.330;21.924;2023-04-24T03:12:30;11.18;;;6.68;;
52816;SDS011;38687;43.330;21.924;2023-04-24T03:14:55;7.43;;;5.85;;
52816;SDS011;38687;43.330;21.924;2023-04-24T03:17:21;9.10;;;6.22;;
52816;SDS011;38687;43.330;21.924;2023-04-24T03:19:46;8.35;;;6.22;;
52816;SDS011;38687;43.330;21.924;2023-04-24T03:22:12;8.40;;;5.72;;
52816;SDS011;38687;43.330;21.924;2023-04-24T03:24:37;8.88;;;5.80;;
52816;SDS011;38687;43.330;21.924;2023-04-24T03:27:03;7.00;;;5.63;;
52816;SDS011;38687;43.330;21.924;2023-04-24T03:29:28;11.63;;;6.75;;
52816;SDS011;38687;43.330;21.924;2023-04-24T03:31:53;10.45;;;5.72;;
52816;SDS011;38687;43.330;21.924;2023-04-24T03:34:19;9.18;;;6.32;;
52816;SDS011;38687;43.330;21.924;2023-04-24T03:36:44;8.38;;;5.57;;
52816;SDS011;38687;43.330;21.924;2023-04-24T03:39:12;7.88;;;5.90;;
52816;SDS011;38687;43.330;21.924;2023-04-24T03:41:38;10.80;;;6.20;;
52816;SDS011;38687;43.330;21.924;2023-04-24T03:44:03;10.35;;;7.40;;
52816;SDS011;38687;43.330;21.924;2023-04-24T03:46:29;7.82;;;5.55;;
52816;SDS011;38687;43.330;21.924;2023-04-24T03:48:54;9.88;;;6.82;;
52816;SDS011;38687;43.330;21.924;2023-04-24T03:51:20;8.75;;;6.05;;
52816;SDS011;38687;43.330;21.924;2023-04-24T03:53:45;9.15;;;6.15;;
52816;SDS011;38687;43.330;21.924;2023-04-24T03:56:11;6.88;;;5.90;;
52816;SDS011;38687;43.330;21.924;2023-04-24T03:58:36;6.53;;;5.82;;
52816;SDS011;38687;43.330;21.924;2023-04-24T04:01:02;9.45;;;6.55;;
52816;SDS011;38687;43.330;21.924;2023-04-24T04:03:28;11.25;;;6.70;;
52816;SDS011;38687;43.330;21.924;2023-04-24T04:05:53;7.82;;;5.60;;
52816;SDS011;38687;43.330;21.924;2023-04-24T04:08:19;7.85;;;6.10;;
52816;SDS011;38687;43.330;21.924;2023-04-24T04:10:44;7.78;;;5.78;;
52816;SDS011;38687;43.330;21.924;2023-04-24T04:13:11;8.27;;;5.65;;
52816;SDS011;38687;43.330;21.924;2023-04-24T04:15:37;8.98;;;6.68;;
52816;SDS011;38687;43.330;21.924;2023-04-24T04:18:02;8.27;;;5.90;;
52816;SDS011;38687;43.330;21.924;2023-04-24T04:20:28;11.98;;;7.07;;
52816;SDS011;38687;43.330;21.924;2023-04-24T04:22:53;10.65;;;7.85;;
52816;SDS011;38687;43.330;21.924;2023-04-24T04:25:18;9.30;;;7.13;;
52816;SDS011;38687;43.330;21.924;2023-04-24T04:27:44;12.90;;;7.32;;
52816;SDS011;38687;43.330;21.924;2023-04-24T04:30:13;11.32;;;7.13;;
52816;SDS011;38687;43.330;21.924;2023-04-24T04:32:39;10.45;;;7.00;;
52816;SDS011;38687;43.330;21.924;2023-04-24T04:35:04;9.35;;;7.05;;
52816;SDS011;38687;43.330;21.924;2023-04-24T04:37:31;9.27;;;6.57;;
52816;SDS011;38687;43.330;21.924;2023-04-24T04:39:58;7.78;;;6.75;;
52816;SDS011;38687;43.330;21.924;2023-04-24T04:42:24;9.02;;;7.00;;
52816;SDS011;38687;43.330;21.924;2023-04-24T04:44:50;9.07;;;7.75;;
52816;SDS011;38687;43.330;21.924;2023-04-24T04:47:16;8.43;;;5.93;;
52816;SDS011;38687;43.330;21.924;2023-04-24T04:49:43;10.20;;;6.38;;
52816;SDS011;38687;43.330;21.924;2023-04-24T04:52:09;11.32;;;6.82;;
52816;SDS011;38687;43.330;21.924;2023-04-24T04:54:34;8.07;;;6.22;;
52816;SDS011;38687;43.330;21.924;2023-04-24T04:57:00;7.28;;;6.13;;
52816;SDS011;38687;43.330;21.924;2023-04-24T04:59:26;9.45;;;6.20;;
52816;SDS011;38687;43.330;21.924;2023-04-24T05:01:51;12.60;;;7.53;;
52816;SDS011;38687;43.330;21.924;2023-04-24T05:04:17;13.40;;;7.93;;
52816;SDS011;38687;43.330;21.924;2023-04-24T05:06:42;9.35;;;6.90;;
52816;SDS011;38687;43.330;21.924;2023-04-24T05:09:08;10.05;;;6.85;;
52816;SDS011;38687;43.330;21.924;2023-04-24T05:11:34;11.20;;;7.55;;
52816;SDS011;38687;43.330;21.924;2023-04-24T05:13:59;10.55;;;6.95;;
52816;SDS011;38687;43.330;21.924;2023-04-24T05:16:25;10.65;;;6.93;;
52816;SDS011;38687;43.330;21.924;2023-04-24T05:18:50;12.48;;;7.50;;
52816;SDS011;38687;43.330;21.924;2023-04-24T05:21:16;11.30;;;7.43;;
52816;SDS011;38687;43.330;21.924;2023-04-24T05:23:41;9.32;;;6.72;;
52816;SDS011;38687;43.330;21.924;2023-04-24T05:26:07;16.50;;;9.23;;
52816;SDS011;38687;43.330;21.924;2023-04-24T05:28:32;22.58;;;15.00;;
52816;SDS011;38687;43.330;21.924;2023-04-24T05:30:57;21.92;;;13.77;;
52816;SDS011;38687;43.330;21.924;2023-04-24T05:33:25;13.05;;;9.93;;
52816;SDS011;38687;43.330;21.924;2023-04-24T05:35:50;10.27;;;8.57;;
52816;SDS011;38687;43.330;21.924;2023-04-24T05:38:19;12.18;;;8.02;;
52816;SDS011;38687;43.330;21.924;2023-04-24T05:40:45;11.73;;;8.40;;
52816;SDS011;38687;43.330;21.924;2023-04-24T05:43:11;19.30;;;13.48;;
52816;SDS011;38687;43.330;21.924;2023-04-24T05:45:41;12.60;;;8.00;;
52816;SDS011;38687;43.330;21.924;2023-04-24T05:48:06;9.65;;;7.03;;
52816;SDS011;38687;43.330;21.924;2023-04-24T05:50:31;10.07;;;7.30;;
52816;SDS011;38687;43.330;21.924;2023-04-24T05:52:57;15.82;;;11.40;;
52816;SDS011;38687;43.330;21.924;2023-04-24T05:55:27;11.00;;;7.50;;
52816;SDS011;38687;43.330;21.924;2023-04-24T05:57:52;9.32;;;8.10;;
52816;SDS011;38687;43.330;21.924;2023-04-24T06:00:18;10.63;;;8.35;;
52816;SDS011;38687;43.330;21.924;2023-04-24T06:02:45;12.55;;;8.90;;
52816;SDS011;38687;43.330;21.924;2023-04-24T06:05:12;8.93;;;7.45;;
52816;SDS011;38687;43.330;21.924;2023-04-24T06:07:37;12.38;;;9.35;;
52816;SDS011;38687;43.330;21.924;2023-04-24T06:10:03;14.25;;;9.35;;
52816;SDS011;38687;43.330;21.924;2023-04-24T06:12:28;12.35;;;8.93;;
52816;SDS011;38687;43.330;21.924;2023-04-24T06:14:54;10.57;;;7.90;;
52816;SDS011;38687;43.330;21.924;2023-04-24T06:17:20;11.32;;;8.40;;
52816;SDS011;38687;43.330;21.924;2023-04-24T06:19:46;7.60;;;6.82;;
52816;SDS011;38687;43.330;21.924;2023-04-24T06:22:11;8.75;;;7.53;;
52816;SDS011;38687;43.330;21.924;2023-04-24T06:24:36;11.65;;;8.23;;
52816;SDS011;38687;43.330;21.924;2023-04-24T06:27:02;12.70;;;8.32;;
52816;SDS011;38687;43.330;21.924;2023-04-24T06:29:27;13.35;;;8.70;;
52816;SDS011;38687;43.330;21.924;2023-04-24T06:31:53;14.43;;;10.75;;
52816;SDS011;38687;43.330;21.924;2023-04-24T06:34:18;14.13;;;9.50;;
52816;SDS011;38687;43.330;21.924;2023-04-24T06:36:46;8.30;;;6.53;;
52816;SDS011;38687;43.330;21.924;2023-04-24T06:39:11;12.15;;;7.20;;
52816;SDS011;38687;43.330;21.924;2023-04-24T06:41:37;8.30;;;6.38;;
52816;SDS011;38687;43.330;21.924;2023-04-24T06:44:02;7.72;;;5.95;;
52816;SDS011;38687;43.330;21.924;2023-04-24T06:46:28;8.32;;;6.22;;
52816;SDS011;38687;43.330;21.924;2023-04-24T06:48:53;6.93;;;5.88;;
52816;SDS011;38687;43.330;21.924;2023-04-24T06:51:25;8.60;;;6.10;;
52816;SDS011;38687;43.330;21.924;2023-04-24T06:53:51;8.00;;;6.25;;
52816;SDS011;38687;43.330;21.924;2023-04-24T06:56:17;6.55;;;5.40;;
52816;SDS011;38687;43.330;21.924;2023-04-24T06:58:43;6.55;;;4.85;;
52816;SDS011;38687;43.330;21.924;2023-04-24T07:01:09;5.40;;;4.90;;
52816;SDS011;38687;43.330;21.924;2023-04-24T07:03:35;5.57;;;4.45;;
52816;SDS011;38687;43.330;21.924;2023-04-24T07:06:00;4.85;;;4.45;;
52816;SDS011;38687;43.330;21.924;2023-04-24T07:08:26;5.32;;;4.63;;
52816;SDS011;38687;43.330;21.924;2023-04-24T07:10:51;4.63;;;3.97;;
52816;SDS011;38687;43.330;21.924;2023-04-24T07:13:17;7.55;;;4.57;;
52816;SDS011;38687;43.330;21.924;2023-04-24T07:15:42;7.97;;;4.10;;
52816;SDS011;38687;43.330;21.924;2023-04-24T07:18:08;5.30;;;3.95;;
52816;SDS011;38687;43.330;21.924;2023-04-24T07:20:34;4.38;;;3.97;;
52816;SDS011;38687;43.330;21.924;2023-04-24T07:22:59;6.60;;;4.60;;
52816;SDS011;38687;43.330;21.924;2023-04-24T07:25:25;4.93;;;4.43;;
52816;SDS011;38687;43.330;21.924;2023-04-24T07:27:50;5.22;;;4.30;;
52816;SDS011;38687;43.330;21.924;2023-04-24T07:30:16;6.05;;;4.22;;
52816;SDS011;38687;43.330;21.924;2023-04-24T07:32:42;7.22;;;4.20;;
52816;SDS011;38687;43.330;21.924;2023-04-24T07:35:07;15.45;;;9.10;;
52816;SDS011;38687;43.330;21.924;2023-04-24T07:37:34;8.35;;;5.35;;
52816;SDS011;38687;43.330;21.924;2023-04-24T07:40:00;5.28;;;3.78;;
52816;SDS011;38687;43.330;21.924;2023-04-24T07:42:25;5.13;;;4.03;;
52816;SDS011;38687;43.330;21.924;2023-04-24T07:44:51;6.18;;;4.80;;
52816;SDS011;38687;43.330;21.924;2023-04-24T07:47:16;7.18;;;3.97;;
52816;SDS011;38687;43.330;21.924;2023-04-24T07:49:42;4.93;;;4.15;;
52816;SDS011;38687;43.330;21.924;2023-04-24T07:52:08;5.32;;;4.18;;
52816;SDS011;38687;43.330;21.924;2023-04-24T07:54:33;5.32;;;4.15;;
52816;SDS011;38687;43.330;21.924;2023-04-24T07:56:59;5.90;;;3.58;;
52816;SDS011;38687;43.330;21.924;2023-04-24T07:59:25;5.07;;;3.13;;
52816;SDS011;38687;43.330;21.924;2023-04-24T08:01:54;4.20;;;3.80;;
52816;SDS011;38687;43.330;21.924;2023-04-24T08:04:20;7.85;;;4.30;;
52816;SDS011;38687;43.330;21.924;2023-04-24T08:06:49;5.90;;;4.03;;
52816;SDS011;38687;43.330;21.924;2023-04-24T08:09:14;5.72;;;4.68;;
52816;SDS011;38687;43.330;21.924;2023-04-24T08:11:40;7.15;;;4.20;;
52816;SDS011;38687;43.330;21.924;2023-04-24T08:14:06;6.00;;;4.20;;
52816;SDS011;38687;43.330;21.924;2023-04-24T08:16:32;4.90;;;4.38;;
52816;SDS011;38687;43.330;21.924;2023-04-24T08:18:58;5.35;;;3.78;;
52816;SDS011;38687;43.330;21.924;2023-04-24T08:21:23;4.40;;;3.97;;
52816;SDS011;38687;43.330;21.924;2023-04-24T08:23:49;5.22;;;4.25;;
52816;SDS011;38687;43.330;21.924;2023-04-24T08:26:15;5.32;;;3.58;;
52816;SDS011;38687;43.330;21.924;2023-04-24T08:28:40;5.10;;;3.42;;
52816;SDS011;38687;43.330;21.924;2023-04-24T08:31:06;5.15;;;4.05;;
52816;SDS011;38687;43.330;21.924;2023-04-24T08:33:31;4.80;;;4.28;;
52816;SDS011;38687;43.330;21.924;2023-04-24T08:36:04;4.80;;;3.95;;
52816;SDS011;38687;43.330;21.924;2023-04-24T08:38:30;4.30;;;3.67;;
52816;SDS011;38687;43.330;21.924;2023-04-24T08:40:59;3.65;;;3.35;;
52816;SDS011;38687;43.330;21.924;2023-04-24T08:43:26;3.63;;;3.20;;
52816;SDS011;38687;43.330;21.924;2023-04-24T08:45:52;5.63;;;3.50;;
52816;SDS011;38687;43.330;21.924;2023-04-24T08:48:18;3.50;;;3.20;;
52816;SDS011;38687;43.330;21.924;2023-04-24T08:50:43;4.45;;;3.30;;
52816;SDS011;38687;43.330;21.924;2023-04-24T08:53:10;5.60;;;3.65;;
52816;SDS011;38687;43.330;21.924;2023-04-24T08:55:35;5.05;;;3.55;;
52816;SDS011;38687;43.330;21.924;2023-04-24T08:58:02;4.95;;;3.78;;
52816;SDS011;38687;43.330;21.924;2023-04-24T09:00:29;3.83;;;3.47;;
52816;SDS011;38687;43.330;21.924;2023-04-24T09:02:54;4.07;;;3.70;;
52816;SDS011;38687;43.330;21.924;2023-04-24T09:05:21;3.95;;;3.47;;
52816;SDS011;38687;43.330;21.924;2023-04-24T09:07:57;4.13;;;3.35;;
52816;SDS011;38687;43.330;21.924;2023-04-24T09:10:25;5.88;;;3.58;;
52816;SDS011;38687;43.330;21.924;2023-04-24T09:12:51;4.20;;;3.63;;
52816;SDS011;38687;43.330;21.924;2023-04-24T09:15:18;5.13;;;3.25;;
52816;SDS011;38687;43.330;21.924;2023-04-24T09:17:45;3.95;;;3.10;;
52816;SDS011;38687;43.330;21.924;2023-04-24T09:20:11;5.70;;;3.50;;
52816;SDS011;38687;43.330;21.924;2023-04-24T09:22:36;3.47;;;3.17;;
52816;SDS011;38687;43.330;21.924;2023-04-24T09:25:06;4.70;;;3.85;;
52816;SDS011;38687;43.330;21.924;2023-04-24T09:27:32;4.00;;;3.42;;
52816;SDS011;38687;43.330;21.924;2023-04-24T09:29:58;3.65;;;3.35;;
52816;SDS011;38687;43.330;21.924;2023-04-24T09:32:24;4.43;;;4.03;;
52816;SDS011;38687;43.330;21.924;2023-04-24T09:35:12;4.60;;;2.90;;
52816;SDS011;38687;43.330;21.924;2023-04-24T09:37:38;6.22;;;3.97;;
52816;SDS011;38687;43.330;21.924;2023-04-24T09:40:07;3.78;;;3.45;;
52816;SDS011;38687;43.330;21.924;2023-04-24T09:42:33;4.47;;;3.65;;
52816;SDS011;38687;43.330;21.924;2023-04-24T09:44:58;3.97;;;3.58;;
52816;SDS011;38687;43.330;21.924;2023-04-24T09:47:24;3.90;;;3.60;;
52816;SDS011;38687;43.330;21.924;2023-04-24T09:49:49;4.18;;;3.28;;
52816;SDS011;38687;43.330;21.924;2023-04-24T09:52:15;5.00;;;3.90;;
52816;SDS011;38687;43.330;21.924;2023-04-24T09:54:40;4.15;;;3.80;;
52816;SDS011;38687;43.330;21.924;2023-04-24T09:57:09;6.78;;;4.22;;
52816;SDS011;38687;43.330;21.924;2023-04-24T09:59:34;5.55;;;3.33;;
52816;SDS011;38687;43.330;21.924;2023-04-24T10:02:00;4.32;;;3.60;;
52816;SDS011;38687;43.330;21.924;2023-04-24T10:04:26;5.50;;;3.75;;
52816;SDS011;38687;43.330;21.924;2023-04-24T10:06:53;7.53;;;3.42;;
52816;SDS011;38687;43.330;21.924;2023-04-24T10:09:21;4.68;;;3.58;;
52816;SDS011;38687;43.330;21.924;2023-04-24T10:11:48;6.55;;;3.85;;
52816;SDS011;38687;43.330;21.924;2023-04-24T10:14:15;4.22;;;3.75;;
52816;SDS011;38687;43.330;21.924;2023-04-24T10:16:42;5.20;;;3.80;;
52816;SDS011;38687;43.330;21.924;2023-04-24T10:19:08;4.85;;;3.90;;
52816;SDS011;38687;43.330;21.924;2023-04-24T10:21:35;4.28;;;3.53;;
52816;SDS011;38687;43.330;21.924;2023-04-24T10:24:04;4.53;;;3.55;;
52816;SDS011;38687;43.330;21.924;2023-04-24T10:26:30;4.82;;;3.55;;
52816;SDS011;38687;43.330;21.924;2023-04-24T10:28:57;5.95;;;4.57;;
52816;SDS011;38687;43.330;21.924;2023-04-24T10:31:22;10.40;;;7.22;;
52816;SDS011;38687;43.330;21.924;2023-04-24T10:33:48;4.05;;;3.65;;
52816;SDS011;38687;43.330;21.924;2023-04-24T10:36:15;3.60;;;3.30;;
52816;SDS011;38687;43.330;21.924;2023-04-24T10:38:41;5.32;;;3.70;;
52816;SDS011;38687;43.330;21.924;2023-04-24T10:41:08;5.05;;;3.47;;
52816;SDS011;38687;43.330;21.924;2023-04-24T10:43:35;5.10;;;3.70;;
52816;SDS011;38687;43.330;21.924;2023-04-24T10:46:01;5.60;;;3.22;;
52816;SDS011;38687;43.330;21.924;2023-04-24T10:48:28;4.40;;;3.33;;
52816;SDS011;38687;43.330;21.924;2023-04-24T10:50:53;6.18;;;3.33;;
52816;SDS011;38687;43.330;21.924;2023-04-24T10:53:23;5.05;;;3.10;;
52816;SDS011;38687;43.330;21.924;2023-04-24T10:58:25;4.80;;;3.35;;
52816;SDS011;38687;43.330;21.924;2023-04-24T11:01:02;4.60;;;3.72;;
52816;SDS011;38687;43.330;21.924;2023-04-24T11:03:28;4.65;;;3.35;;
52816;SDS011;38687;43.330;21.924;2023-04-24T11:05:56;3.28;;;2.97;;
52816;SDS011;38687;43.330;21.924;2023-04-24T11:08:28;5.10;;;3.75;;
52816;SDS011;38687;43.330;21.924;2023-04-24T11:13:24;4.22;;;3.63;;
52816;SDS011;38687;43.330;21.924;2023-04-24T11:21:44;5.15;;;4.30;;
52816;SDS011;38687;43.330;21.924;2023-04-24T11:27:01;5.28;;;3.50;;
52816;SDS011;38687;43.330;21.924;2023-04-24T11:37:41;5.03;;;3.75;;
52816;SDS011;38687;43.330;21.924;2023-04-24T11:40:09;5.88;;;3.40;;
52816;SDS011;38687;43.330;21.924;2023-04-24T11:42:36;3.67;;;3.38;;
52816;SDS011;38687;43.330;21.924;2023-04-24T11:45:07;8.38;;;4.05;;
52816;SDS011;38687;43.330;21.924;2023-04-24T11:47:39;3.97;;;3.58;;
52816;SDS011;38687;43.330;21.924;2023-04-24T11:50:06;3.88;;;3.40;;
52816;SDS011;38687;43.330;21.924;2023-04-24T11:52:33;5.55;;;4.07;;
52816;SDS011;38687;43.330;21.924;2023-04-24T11:55:01;3.88;;;3.53;;
52816;SDS011;38687;43.330;21.924;2023-04-24T11:57:28;5.40;;;4.32;;
52816;SDS011;38687;43.330;21.924;2023-04-24T11:59:58;4.90;;;4.00;;
52816;SDS011;38687;43.330;21.924;2023-04-24T12:02:25;4.50;;;3.75;;
52816;SDS011;38687;43.330;21.924;2023-04-24T12:04:52;4.13;;;3.80;;
52816;SDS011;38687;43.330;21.924;2023-04-24T12:07:18;4.50;;;4.10;;
52816;SDS011;38687;43.330;21.924;2023-04-24T12:09:45;4.65;;;3.80;;
52816;SDS011;38687;43.330;21.924;2023-04-24T12:12:23;4.10;;;3.70;;
52816;SDS011;38687;43.330;21.924;2023-04-24T12:14:54;6.65;;;4.43;;
52816;SDS011;38687;43.330;21.924;2023-04-24T12:17:28;7.40;;;4.88;;
52816;SDS011;38687;43.330;21.924;2023-04-24T12:19:59;6.80;;;4.43;;
52816;SDS011;38687;43.330;21.924;2023-04-24T12:22:27;6.93;;;3.95;;
52816;SDS011;38687;43.330;21.924;2023-04-24T12:25:02;5.07;;;3.83;;
52816;SDS011;38687;43.330;21.924;2023-04-24T12:27:33;5.70;;;3.55;;
52816;SDS011;38687;43.330;21.924;2023-04-24T12:29:59;4.57;;;3.75;;
52816;SDS011;38687;43.330;21.924;2023-04-24T12:32:25;4.30;;;3.72;;
52816;SDS011;38687;43.330;21.924;2023-04-24T12:34:51;6.80;;;3.97;;
52816;SDS011;38687;43.330;21.924;2023-04-24T12:37:17;6.05;;;4.00;;
52816;SDS011;38687;43.330;21.924;2023-04-24T12:39:59;4.47;;;4.07;;
52816;SDS011;38687;43.330;21.924;2023-04-24T12:42:33;6.95;;;4.40;;
52816;SDS011;38687;43.330;21.924;2023-04-24T12:45:01;4.80;;;4.28;;
52816;SDS011;38687;43.330;21.924;2023-04-24T12:47:31;4.53;;;3.95;;
52816;SDS011;38687;43.330;21.924;2023-04-24T12:49:57;4.45;;;4.05;;
52816;SDS011;38687;43.330;21.924;2023-04-24T12:52:23;7.90;;;4.55;;
52816;SDS011;38687;43.330;21.924;2023-04-24T12:54:50;6.43;;;3.80;;
52816;SDS011;38687;43.330;21.924;2023-04-24T12:57:16;6.70;;;4.38;;
52816;SDS011;38687;43.330;21.924;2023-04-24T12:59:42;6.57;;;4.97;;
52816;SDS011;38687;43.330;21.924;2023-04-24T13:02:08;9.23;;;6.03;;
52816;SDS011;38687;43.330;21.924;2023-04-24T13:04:35;4.63;;;3.65;;
52816;SDS011;38687;43.330;21.924;2023-04-24T13:07:00;8.93;;;5.10;;
52816;SDS011;38687;43.330;21.924;2023-04-24T13:09:26;7.43;;;5.50;;
52816;SDS011;38687;43.330;21.924;2023-04-24T13:11:51;9.07;;;5.47;;
52816;SDS011;38687;43.330;21.924;2023-04-24T13:14:16;9.40;;;5.25;;
52816;SDS011;38687;43.330;21.924;2023-04-24T13:16:42;5.93;;;5.32;;
52816;SDS011;38687;43.330;21.924;2023-04-24T13:19:07;5.22;;;4.20;;
52816;SDS011;38687;43.330;21.924;2023-04-24T13:21:33;5.57;;;4.90;;
52816;SDS011;38687;43.330;21.924;2023-04-24T13:23:58;9.55;;;6.05;;
52816;SDS011;38687;43.330;21.924;2023-04-24T13:26:24;8.68;;;4.65;;
52816;SDS011;38687;43.330;21.924;2023-04-24T13:28:49;9.43;;;5.20;;
52816;SDS011;38687;43.330;21.924;2023-04-24T13:31:15;9.65;;;5.63;;
52816;SDS011;38687;43.330;21.924;2023-04-24T13:33:40;7.93;;;5.43;;
52816;SDS011;38687;43.330;21.924;2023-04-24T13:36:06;7.40;;;5.20;;
52816;SDS011;38687;43.330;21.924;2023-04-24T13:38:31;3.97;;;3.38;;
52816;SDS011;38687;43.330;21.924;2023-04-24T13:40:57;6.78;;;4.65;;
52816;SDS011;38687;43.330;21.924;2023-04-24T13:43:22;6.28;;;3.63;;
52816;SDS011;38687;43.330;21.924;2023-04-24T13:45:48;6.57;;;3.85;;
52816;SDS011;38687;43.330;21.924;2023-04-24T13:48:13;5.60;;;4.32;;
52816;SDS011;38687;43.330;21.924;2023-04-24T13:50:40;3.78;;;3.47;;
52816;SDS011;38687;43.330;21.924;2023-04-24T13:53:07;5.25;;;3.05;;
52816;SDS011;38687;43.330;21.924;2023-04-24T13:55:32;3.88;;;3.33;;
52816;SDS011;38687;43.330;21.924;2023-04-24T13:57:58;3.75;;;2.97;;
52816;SDS011;38687;43.330;21.924;2023-04-24T14:00:23;4.50;;;3.05;;
52816;SDS011;38687;43.330;21.924;2023-04-24T14:02:49;4.82;;;3.20;;
52816;SDS011;38687;43.330;21.924;2023-04-24T14:05:15;3.55;;;2.88;;
52816;SDS011;38687;43.330;21.924;2023-04-24T14:07:41;5.85;;;3.80;;
52816;SDS011;38687;43.330;21.924;2023-04-24T14:10:07;5.70;;;4.07;;
52816;SDS011;38687;43.330;21.924;2023-04-24T14:12:33;4.47;;;4.07;;
52816;SDS011;38687;43.330;21.924;2023-04-24T14:14:58;7.00;;;4.15;;
52816;SDS011;38687;43.330;21.924;2023-04-24T14:17:24;4.78;;;4.30;;
52816;SDS011;38687;43.330;21.924;2023-04-24T14:19:49;4.38;;;3.10;;
52816;SDS011;38687;43.330;21.924;2023-04-24T14:22:17;5.18;;;3.35;;
52816;SDS011;38687;43.330;21.924;2023-04-24T14:24:42;7.70;;;3.67;;
52816;SDS011;38687;43.330;21.924;2023-04-24T14:27:08;5.65;;;3.85;;
52816;SDS011;38687;43.330;21.924;2023-04-24T14:29:33;4.88;;;4.32;;
52816;SDS011;38687;43.330;21.924;2023-04-24T14:31:59;4.00;;;3.60;;
52816;SDS011;38687;43.330;21.924;2023-04-24T14:34:24;5.38;;;3.42;;
52816;SDS011;38687;43.330;21.924;2023-04-24T14:36:50;9.38;;;7.53;;
52816;SDS011;38687;43.330;21.924;2023-04-24T14:39:15;4.45;;;3.13;;
52816;SDS011;38687;43.330;21.924;2023-04-24T14:41:41;4.55;;;3.65;;
52816;SDS011;38687;43.330;21.924;2023-04-24T14:44:06;4.43;;;3.65;;
52816;SDS011;38687;43.330;21.924;2023-04-24T14:46:32;5.00;;;3.40;;